sensor_id;sensor_type;location;lat;lon;timestamp;temperature;humidity
49379;DHT22;35254;47.990;-1.608;2023-04-01T00:01:12;18.90;55.90
49379;DHT22;35254;47.990;-1.608;2023-04-01T00:03:40;18.90;56.00
49379;DHT22;35254;47.990;-1.608;2023-04-01T00:06:06;18.90;55.90
49379;DHT22;35254;47.990;-1.608;2023-04-01T00:08:32;18.90;55.90
49379;DHT22;35254;47.990;-1.608;2023-04-01T00:10:58;18.90;55.80
49379;DHT22;35254;47.990;-1.608;2023-04-01T00:13:25;18.90;55.90
49379;DHT22;35254;47.990;-1.608;2023-04-01T00:15:52;18.90;55.80
49379;DHT22;35254;47.990;-1.608;2023-04-01T00:18:18;18.90;55.90
49379;DHT22;35254;47.990;-1.608;2023-04-01T00:20:50;18.90;55.80
49379;DHT22;35254;47.990;-1.608;2023-04-01T00:23:16;18.90;56.00
49379;DHT22;35254;47.990;-1.608;2023-04-01T00:25:43;18.90;55.90
49379;DHT22;35254;47.990;-1.608;2023-04-01T00:28:09;18.90;55.80
49379;DHT22;35254;47.990;-1.608;2023-04-01T00:30:36;18.90;55.90
49379;DHT22;35254;47.990;-1.608;2023-04-01T00:33:02;18.90;55.70
49379;DHT22;35254;47.990;-1.608;2023-04-01T00:35:28;18.90;55.70
49379;DHT22;35254;47.990;-1.608;2023-04-01T00:37:54;18.90;55.80
49379;DHT22;35254;47.990;-1.608;2023-04-01T00:40:31;18.90;55.80
49379;DHT22;35254;47.990;-1.608;2023-04-01T00:42:57;18.90;55.70
49379;DHT22;35254;47.990;-1.608;2023-04-01T00:47:51;18.90;55.70
49379;DHT22;35254;47.990;-1.608;2023-04-01T00:50:16;18.90;55.70
49379;DHT22;35254;47.990;-1.608;2023-04-01T00:52:42;18.90;55.70
49379;DHT22;35254;47.990;-1.608;2023-04-01T00:55:09;18.80;55.70
49379;DHT22;35254;47.990;-1.608;2023-04-01T00:57:37;18.80;55.70
49379;DHT22;35254;47.990;-1.608;2023-04-01T01:00:05;18.80;55.60
49379;DHT22;35254;47.990;-1.608;2023-04-01T01:02:35;18.80;55.80
49379;DHT22;35254;47.990;-1.608;2023-04-01T01:05:01;18.80;55.80
49379;DHT22;35254;47.990;-1.608;2023-04-01T01:10:28;18.80;55.70
49379;DHT22;35254;47.990;-1.608;2023-04-01T01:13:33;18.80;55.80
49379;DHT22;35254;47.990;-1.608;2023-04-01T01:16:06;18.80;55.80
49379;DHT22;35254;47.990;-1.608;2023-04-01T01:19:16;18.80;55.80
49379;DHT22;35254;47.990;-1.608;2023-04-01T01:27:02;18.80;55.90
49379;DHT22;35254;47.990;-1.608;2023-04-01T01:37:44;18.70;55.80
49379;DHT22;35254;47.990;-1.608;2023-04-01T01:40:12;18.70;55.80
49379;DHT22;35254;47.990;-1.608;2023-04-01T01:42:42;18.80;55.70
49379;DHT22;35254;47.990;-1.608;2023-04-01T01:45:10;18.80;55.70
49379;DHT22;35254;47.990;-1.608;2023-04-01T01:47:38;18.70;55.70
49379;DHT22;35254;47.990;-1.608;2023-04-01T01:50:06;18.70;55.70
49379;DHT22;35254;47.990;-1.608;2023-04-01T01:52:32;18.70;55.80
49379;DHT22;35254;47.990;-1.608;2023-04-01T01:54:58;18.70;55.60
49379;DHT22;35254;47.990;-1.608;2023-04-01T01:57:30;18.70;55.60
49379;DHT22;35254;47.990;-1.608;2023-04-01T02:00:09;18.70;55.50
49379;DHT22;35254;47.990;-1.608;2023-04-01T02:02:46;18.70;55.50
49379;DHT22;35254;47.990;-1.608;2023-04-01T02:05:22;18.70;55.50
49379;DHT22;35254;47.990;-1.608;2023-04-01T02:07:55;18.70;55.50
49379;DHT22;35254;47.990;-1.608;2023-04-01T02:10:25;18.70;55.50
49379;DHT22;35254;47.990;-1.608;2023-04-01T02:12:53;18.70;55.40
49379;DHT22;35254;47.990;-1.608;2023-04-01T02:15:25;18.70;55.70
49379;DHT22;35254;47.990;-1.608;2023-04-01T02:17:55;18.70;55.60
49379;DHT22;35254;47.990;-1.608;2023-04-01T02:20:23;18.70;55.60
49379;DHT22;35254;47.990;-1.608;2023-04-01T02:22:54;18.70;55.70
49379;DHT22;35254;47.990;-1.608;2023-04-01T02:25:29;18.70;55.70
49379;DHT22;35254;47.990;-1.608;2023-04-01T02:27:57;18.70;55.70
49379;DHT22;35254;47.990;-1.608;2023-04-01T02:30:25;18.70;55.60
49379;DHT22;35254;47.990;-1.608;2023-04-01T02:32:52;18.70;55.60
49379;DHT22;35254;47.990;-1.608;2023-04-01T02:35:19;18.70;55.60
49379;DHT22;35254;47.990;-1.608;2023-04-01T02:37:46;18.70;55.60
49379;DHT22;35254;47.990;-1.608;2023-04-01T02:40:15;18.70;55.50
49379;DHT22;35254;47.990;-1.608;2023-04-01T02:42:41;18.70;55.60
49379;DHT22;35254;47.990;-1.608;2023-04-01T02:45:07;18.70;55.70
49379;DHT22;35254;47.990;-1.608;2023-04-01T02:47:33;18.70;55.70
49379;DHT22;35254;47.990;-1.608;2023-04-01T02:49:59;18.70;55.70
49379;DHT22;35254;47.990;-1.608;2023-04-01T02:52:25;18.70;55.70
49379;DHT22;35254;47.990;-1.608;2023-04-01T02:54:51;18.70;55.80
49379;DHT22;35254;47.990;-1.608;2023-04-01T02:57:17;18.70;55.70
49379;DHT22;35254;47.990;-1.608;2023-04-01T02:59:43;18.70;55.70
49379;DHT22;35254;47.990;-1.608;2023-04-01T03:02:08;18.70;55.70
49379;DHT22;35254;47.990;-1.608;2023-04-01T03:04:34;18.70;55.70
49379;DHT22;35254;47.990;-1.608;2023-04-01T03:07:00;18.70;55.80
49379;DHT22;35254;47.990;-1.608;2023-04-01T03:09:25;18.60;55.70
49379;DHT22;35254;47.990;-1.608;2023-04-01T03:11:51;18.70;55.70
49379;DHT22;35254;47.990;-1.608;2023-04-01T03:14:17;18.70;55.70
49379;DHT22;35254;47.990;-1.608;2023-04-01T03:16:42;18.70;55.90
49379;DHT22;35254;47.990;-1.608;2023-04-01T03:19:08;18.70;55.80
49379;DHT22;35254;47.990;-1.608;2023-04-01T03:21:33;18.60;55.80
49379;DHT22;35254;47.990;-1.608;2023-04-01T03:23:59;18.70;55.90
49379;DHT22;35254;47.990;-1.608;2023-04-01T03:26:25;18.70;55.80
49379;DHT22;35254;47.990;-1.608;2023-04-01T03:28:52;18.70;55.70
49379;DHT22;35254;47.990;-1.608;2023-04-01T03:31:19;18.60;55.50
49379;DHT22;35254;47.990;-1.608;2023-04-01T03:33:45;18.60;56.00
49379;DHT22;35254;47.990;-1.608;2023-04-01T03:36:10;18.70;56.30
49379;DHT22;35254;47.990;-1.608;2023-04-01T03:38:39;18.60;56.30
49379;DHT22;35254;47.990;-1.608;2023-04-01T03:41:05;18.60;56.30
49379;DHT22;35254;47.990;-1.608;2023-04-01T03:43:32;18.60;56.20
49379;DHT22;35254;47.990;-1.608;2023-04-01T03:45:58;18.70;56.00
49379;DHT22;35254;47.990;-1.608;2023-04-01T03:48:24;18.70;56.00
49379;DHT22;35254;47.990;-1.608;2023-04-01T03:50:50;18.60;56.00
49379;DHT22;35254;47.990;-1.608;2023-04-01T03:53:16;18.60;56.00
49379;DHT22;35254;47.990;-1.608;2023-04-01T03:55:42;18.60;55.80
49379;DHT22;35254;47.990;-1.608;2023-04-01T03:58:08;18.60;55.80
49379;DHT22;35254;47.990;-1.608;2023-04-01T04:00:34;18.60;55.70
49379;DHT22;35254;47.990;-1.608;2023-04-01T04:02:59;18.60;55.70
49379;DHT22;35254;47.990;-1.608;2023-04-01T04:05:26;18.60;55.70
49379;DHT22;35254;47.990;-1.608;2023-04-01T04:07:52;18.60;55.60
49379;DHT22;35254;47.990;-1.608;2023-04-01T04:10:19;18.60;55.50
49379;DHT22;35254;47.990;-1.608;2023-04-01T04:12:45;18.60;55.50
49379;DHT22;35254;47.990;-1.608;2023-04-01T04:15:11;18.60;55.60
49379;DHT22;35254;47.990;-1.608;2023-04-01T04:17:37;18.60;55.70
49379;DHT22;35254;47.990;-1.608;2023-04-01T04:20:03;18.60;55.70
49379;DHT22;35254;47.990;-1.608;2023-04-01T04:22:29;18.60;55.70
49379;DHT22;35254;47.990;-1.608;2023-04-01T04:24:55;18.60;55.80
49379;DHT22;35254;47.990;-1.608;2023-04-01T04:27:20;18.60;55.80
49379;DHT22;35254;47.990;-1.608;2023-04-01T04:29:46;18.60;55.80
49379;DHT22;35254;47.990;-1.608;2023-04-01T04:32:11;18.60;55.80
49379;DHT22;35254;47.990;-1.608;2023-04-01T04:34:37;18.50;55.80
49379;DHT22;35254;47.990;-1.608;2023-04-01T04:37:03;18.60;55.80
49379;DHT22;35254;47.990;-1.608;2023-04-01T04:39:29;18.60;55.60
49379;DHT22;35254;47.990;-1.608;2023-04-01T04:41:55;18.50;55.70
49379;DHT22;35254;47.990;-1.608;2023-04-01T04:44:20;18.50;55.70
49379;DHT22;35254;47.990;-1.608;2023-04-01T04:46:46;18.50;55.50
49379;DHT22;35254;47.990;-1.608;2023-04-01T04:49:12;18.60;55.40
49379;DHT22;35254;47.990;-1.608;2023-04-01T04:51:38;18.50;55.30
49379;DHT22;35254;47.990;-1.608;2023-04-01T04:54:04;18.50;55.30
49379;DHT22;35254;47.990;-1.608;2023-04-01T04:56:31;18.50;55.30
49379;DHT22;35254;47.990;-1.608;2023-04-01T04:58:57;18.50;55.20
49379;DHT22;35254;47.990;-1.608;2023-04-01T05:01:24;18.50;55.20
49379;DHT22;35254;47.990;-1.608;2023-04-01T05:03:50;18.50;55.20
49379;DHT22;35254;47.990;-1.608;2023-04-01T05:06:17;18.50;55.20
49379;DHT22;35254;47.990;-1.608;2023-04-01T05:08:44;18.50;55.10
49379;DHT22;35254;47.990;-1.608;2023-04-01T05:11:13;18.50;55.10
49379;DHT22;35254;47.990;-1.608;2023-04-01T05:13:39;18.50;55.00
49379;DHT22;35254;47.990;-1.608;2023-04-01T05:16:12;18.40;55.00
49379;DHT22;35254;47.990;-1.608;2023-04-01T05:18:38;18.50;55.00
49379;DHT22;35254;47.990;-1.608;2023-04-01T05:21:06;18.50;55.00
49379;DHT22;35254;47.990;-1.608;2023-04-01T05:23:32;18.50;55.00
49379;DHT22;35254;47.990;-1.608;2023-04-01T05:25:58;18.40;55.10
49379;DHT22;35254;47.990;-1.608;2023-04-01T05:28:24;18.40;55.00
49379;DHT22;35254;47.990;-1.608;2023-04-01T05:30:50;18.40;54.90
49379;DHT22;35254;47.990;-1.608;2023-04-01T05:33:15;18.40;54.90
49379;DHT22;35254;47.990;-1.608;2023-04-01T05:35:41;18.40;55.00
49379;DHT22;35254;47.990;-1.608;2023-04-01T05:38:07;18.40;54.90
49379;DHT22;35254;47.990;-1.608;2023-04-01T05:40:34;18.40;54.90
49379;DHT22;35254;47.990;-1.608;2023-04-01T05:43:00;18.40;54.80
49379;DHT22;35254;47.990;-1.608;2023-04-01T05:45:26;18.40;55.00
49379;DHT22;35254;47.990;-1.608;2023-04-01T05:47:52;18.40;54.90
49379;DHT22;35254;47.990;-1.608;2023-04-01T05:50:18;18.40;54.90
49379;DHT22;35254;47.990;-1.608;2023-04-01T05:52:43;18.40;54.90
49379;DHT22;35254;47.990;-1.608;2023-04-01T05:55:10;18.40;55.00
49379;DHT22;35254;47.990;-1.608;2023-04-01T05:57:36;18.30;54.90
49379;DHT22;35254;47.990;-1.608;2023-04-01T06:00:03;18.40;54.90
49379;DHT22;35254;47.990;-1.608;2023-04-01T06:02:29;18.40;54.90
49379;DHT22;35254;47.990;-1.608;2023-04-01T06:05:03;18.40;54.90
49379;DHT22;35254;47.990;-1.608;2023-04-01T06:07:36;18.40;54.90
49379;DHT22;35254;47.990;-1.608;2023-04-01T06:10:14;18.40;54.90
49379;DHT22;35254;47.990;-1.608;2023-04-01T06:43:27;18.50;55.10
49379;DHT22;35254;47.990;-1.608;2023-04-01T06:49:13;18.40;55.10
49379;DHT22;35254;47.990;-1.608;2023-04-01T06:54:44;18.50;55.20
49379;DHT22;35254;47.990;-1.608;2023-04-01T06:57:35;18.50;55.20
49379;DHT22;35254;47.990;-1.608;2023-04-01T07:00:20;18.50;55.30
49379;DHT22;35254;47.990;-1.608;2023-04-01T07:03:19;18.50;55.40
49379;DHT22;35254;47.990;-1.608;2023-04-01T07:05:46;18.50;55.50
49379;DHT22;35254;47.990;-1.608;2023-04-01T07:08:16;18.50;55.60
49379;DHT22;35254;47.990;-1.608;2023-04-01T07:10:47;18.50;55.70
49379;DHT22;35254;47.990;-1.608;2023-04-01T07:13:26;18.50;55.80
49379;DHT22;35254;47.990;-1.608;2023-04-01T07:16:05;18.60;55.90
49379;DHT22;35254;47.990;-1.608;2023-04-01T07:21:04;18.60;56.10
49379;DHT22;35254;47.990;-1.608;2023-04-01T07:23:41;18.60;56.10
49379;DHT22;35254;47.990;-1.608;2023-04-01T07:26:18;18.60;56.20
49379;DHT22;35254;47.990;-1.608;2023-04-01T07:28:46;18.60;56.50
49379;DHT22;35254;47.990;-1.608;2023-04-01T07:36:27;18.60;56.50
49379;DHT22;35254;47.990;-1.608;2023-04-01T07:39:09;18.60;56.50
49379;DHT22;35254;47.990;-1.608;2023-04-01T07:41:42;18.70;57.00
49379;DHT22;35254;47.990;-1.608;2023-04-01T07:44:32;18.70;57.50
49379;DHT22;35254;47.990;-1.608;2023-04-01T07:49:56;18.70;58.20
49379;DHT22;35254;47.990;-1.608;2023-04-01T08:00:51;18.80;59.00
49379;DHT22;35254;47.990;-1.608;2023-04-01T08:08:36;18.90;59.00
49379;DHT22;35254;47.990;-1.608;2023-04-01T08:11:22;18.90;58.90
49379;DHT22;35254;47.990;-1.608;2023-04-01T08:14:13;18.90;58.80
49379;DHT22;35254;47.990;-1.608;2023-04-01T08:22:22;18.90;58.50
49379;DHT22;35254;47.990;-1.608;2023-04-01T08:24:51;18.90;58.50
49379;DHT22;35254;47.990;-1.608;2023-04-01T08:27:36;18.90;58.50
49379;DHT22;35254;47.990;-1.608;2023-04-01T08:32:54;18.90;58.60
49379;DHT22;35254;47.990;-1.608;2023-04-01T08:37:54;18.90;58.80
49379;DHT22;35254;47.990;-1.608;2023-04-01T08:43:11;19.10;58.80
49379;DHT22;35254;47.990;-1.608;2023-04-01T08:48:29;19.20;58.60
49379;DHT22;35254;47.990;-1.608;2023-04-01T09:10:28;19.30;59.10
49379;DHT22;35254;47.990;-1.608;2023-04-01T09:28:57;19.30;59.00
49379;DHT22;35254;47.990;-1.608;2023-04-01T09:36:45;19.30;58.60
49379;DHT22;35254;47.990;-1.608;2023-04-01T09:42:06;19.30;58.40
49379;DHT22;35254;47.990;-1.608;2023-04-01T09:44:53;19.30;58.50
49379;DHT22;35254;47.990;-1.608;2023-04-01T09:50:32;19.30;58.40
49379;DHT22;35254;47.990;-1.608;2023-04-01T09:56:39;19.30;58.30
49379;DHT22;35254;47.990;-1.608;2023-04-01T10:29:37;19.40;56.90
49379;DHT22;35254;47.990;-1.608;2023-04-01T10:41:12;19.40;56.20
49379;DHT22;35254;47.990;-1.608;2023-04-01T10:43:49;19.40;56.10
49379;DHT22;35254;47.990;-1.608;2023-04-01T10:54:49;19.40;55.50
49379;DHT22;35254;47.990;-1.608;2023-04-01T11:01:21;19.40;55.20
49379;DHT22;35254;47.990;-1.608;2023-04-01T11:03:57;19.50;55.10
49379;DHT22;35254;47.990;-1.608;2023-04-01T11:06:54;19.50;55.00
49379;DHT22;35254;47.990;-1.608;2023-04-01T11:32:37;19.50;54.70
49379;DHT22;35254;47.990;-1.608;2023-04-01T11:43:32;19.50;54.80
49379;DHT22;35254;47.990;-1.608;2023-04-01T11:46:20;19.50;54.80
49379;DHT22;35254;47.990;-1.608;2023-04-01T11:55:22;19.50;54.80
49379;DHT22;35254;47.990;-1.608;2023-04-01T12:03:32;19.50;54.80
49379;DHT22;35254;47.990;-1.608;2023-04-01T12:06:58;19.50;54.70
49379;DHT22;35254;47.990;-1.608;2023-04-01T12:11:49;19.60;54.60
49379;DHT22;35254;47.990;-1.608;2023-04-01T12:19:39;19.60;54.60
49379;DHT22;35254;47.990;-1.608;2023-04-01T12:22:14;19.60;54.60
49379;DHT22;35254;47.990;-1.608;2023-04-01T12:28:01;19.60;54.40
49379;DHT22;35254;47.990;-1.608;2023-04-01T12:39:17;19.70;54.40
49379;DHT22;35254;47.990;-1.608;2023-04-01T12:42:05;19.70;54.40
49379;DHT22;35254;47.990;-1.608;2023-04-01T12:53:06;19.60;54.50
49379;DHT22;35254;47.990;-1.608;2023-04-01T12:55:42;19.70;54.50
49379;DHT22;35254;47.990;-1.608;2023-04-01T13:07:23;19.70;54.40
49379;DHT22;35254;47.990;-1.608;2023-04-01T13:10:06;19.70;54.50
49379;DHT22;35254;47.990;-1.608;2023-04-01T13:15:33;19.70;54.50
49379;DHT22;35254;47.990;-1.608;2023-04-01T13:24:02;19.70;54.50
49379;DHT22;35254;47.990;-1.608;2023-04-01T13:27:05;19.70;54.50
49379;DHT22;35254;47.990;-1.608;2023-04-01T13:41:22;19.70;54.50
49379;DHT22;35254;47.990;-1.608;2023-04-01T13:49:53;19.70;54.50
49379;DHT22;35254;47.990;-1.608;2023-04-01T13:55:10;19.70;54.40
49379;DHT22;35254;47.990;-1.608;2023-04-01T13:57:48;19.70;54.30
49379;DHT22;35254;47.990;-1.608;2023-04-01T14:03:40;19.70;54.30
49379;DHT22;35254;47.990;-1.608;2023-04-01T14:14:33;19.70;54.20
49379;DHT22;35254;47.990;-1.608;2023-04-01T14:17:36;19.70;54.20
49379;DHT22;35254;47.990;-1.608;2023-04-01T14:20:39;19.70;54.20
49379;DHT22;35254;47.990;-1.608;2023-04-01T14:23:25;19.70;54.20
49379;DHT22;35254;47.990;-1.608;2023-04-01T14:34:21;19.80;54.20
49379;DHT22;35254;47.990;-1.608;2023-04-01T14:37:07;19.70;54.20
49379;DHT22;35254;47.990;-1.608;2023-04-01T14:42:24;19.80;54.20
49379;DHT22;35254;47.990;-1.608;2023-04-01T14:50:43;19.80;54.20
49379;DHT22;35254;47.990;-1.608;2023-04-01T14:55:53;19.80;54.30
49379;DHT22;35254;47.990;-1.608;2023-04-01T14:58:21;19.70;54.40
49379;DHT22;35254;47.990;-1.608;2023-04-01T15:00:59;19.80;54.40
49379;DHT22;35254;47.990;-1.608;2023-04-01T15:17:58;19.80;54.00
49379;DHT22;35254;47.990;-1.608;2023-04-01T15:25:19;19.80;53.80
49379;DHT22;35254;47.990;-1.608;2023-04-01T15:28:00;19.80;53.80
49379;DHT22;35254;47.990;-1.608;2023-04-01T15:30:56;19.80;53.70
49379;DHT22;35254;47.990;-1.608;2023-04-01T15:39:43;19.80;53.80
49379;DHT22;35254;47.990;-1.608;2023-04-01T15:47:58;19.80;53.80
49379;DHT22;35254;47.990;-1.608;2023-04-01T15:58:46;19.80;53.90
49379;DHT22;35254;47.990;-1.608;2023-04-01T16:12:53;19.80;53.90
49379;DHT22;35254;47.990;-1.608;2023-04-01T16:16:06;19.80;53.80
49379;DHT22;35254;47.990;-1.608;2023-04-01T16:21:10;19.80;53.80
49379;DHT22;35254;47.990;-1.608;2023-04-01T16:23:46;19.80;53.80
49379;DHT22;35254;47.990;-1.608;2023-04-01T16:26:25;19.80;53.80
49379;DHT22;35254;47.990;-1.608;2023-04-01T16:31:48;19.80;53.80
49379;DHT22;35254;47.990;-1.608;2023-04-01T16:34:34;19.90;53.80
49379;DHT22;35254;47.990;-1.608;2023-04-01T16:37:12;19.80;53.80
49379;DHT22;35254;47.990;-1.608;2023-04-01T16:39:59;19.90;53.90
49379;DHT22;35254;47.990;-1.608;2023-04-01T16:43:25;19.80;53.80
49379;DHT22;35254;47.990;-1.608;2023-04-01T16:48:28;19.90;53.60
49379;DHT22;35254;47.990;-1.608;2023-04-01T16:51:04;19.80;53.50
49379;DHT22;35254;47.990;-1.608;2023-04-01T16:53:43;19.80;53.40
49379;DHT22;35254;47.990;-1.608;2023-04-01T16:56:45;19.90;53.50
49379;DHT22;35254;47.990;-1.608;2023-04-01T17:02:26;19.80;53.60
49379;DHT22;35254;47.990;-1.608;2023-04-01T17:05:08;19.90;53.60
49379;DHT22;35254;47.990;-1.608;2023-04-01T17:21:04;19.90;53.60
49379;DHT22;35254;47.990;-1.608;2023-04-01T17:23:37;19.90;53.60
49379;DHT22;35254;47.990;-1.608;2023-04-01T17:26:25;19.80;53.60
49379;DHT22;35254;47.990;-1.608;2023-04-01T17:32:12;19.90;53.50
49379;DHT22;35254;47.990;-1.608;2023-04-01T17:39:57;19.90;53.60
49379;DHT22;35254;47.990;-1.608;2023-04-01T17:42:42;19.90;53.60
49379;DHT22;35254;47.990;-1.608;2023-04-01T17:56:33;19.90;54.00
49379;DHT22;35254;47.990;-1.608;2023-04-01T18:10:21;19.80;53.80
49379;DHT22;35254;47.990;-1.608;2023-04-01T18:15:46;19.80;53.70
49379;DHT22;35254;47.990;-1.608;2023-04-01T18:21:20;19.80;53.70
49379;DHT22;35254;47.990;-1.608;2023-04-01T18:23:59;19.80;53.70
49379;DHT22;35254;47.990;-1.608;2023-04-01T18:26:35;19.80;53.70
49379;DHT22;35254;47.990;-1.608;2023-04-01T18:31:55;19.90;53.50
49379;DHT22;35254;47.990;-1.608;2023-04-01T18:34:43;19.80;51.70
49379;DHT22;35254;47.990;-1.608;2023-04-01T18:37:22;19.80;51.60
49379;DHT22;35254;47.990;-1.608;2023-04-01T18:40:11;19.80;52.30
49379;DHT22;35254;47.990;-1.608;2023-04-01T18:45:26;19.80;53.10
49379;DHT22;35254;47.990;-1.608;2023-04-01T18:50:59;19.80;53.20
49379;DHT22;35254;47.990;-1.608;2023-04-01T18:58:50;19.80;53.20
49379;DHT22;35254;47.990;-1.608;2023-04-01T19:04:07;19.80;53.50
49379;DHT22;35254;47.990;-1.608;2023-04-01T19:14:52;19.80;53.60
49379;DHT22;35254;47.990;-1.608;2023-04-01T19:17:48;19.90;53.60
49379;DHT22;35254;47.990;-1.608;2023-04-01T19:20:31;19.80;53.60
49379;DHT22;35254;47.990;-1.608;2023-04-01T19:25:58;19.80;53.90
49379;DHT22;35254;47.990;-1.608;2023-04-01T19:31:24;19.90;54.60
49379;DHT22;35254;47.990;-1.608;2023-04-01T19:41:54;19.90;54.90
49379;DHT22;35254;47.990;-1.608;2023-04-01T19:44:37;19.90;55.00
49379;DHT22;35254;47.990;-1.608;2023-04-01T19:52:38;19.90;55.30
49379;DHT22;35254;47.990;-1.608;2023-04-01T20:00:32;19.90;55.10
49379;DHT22;35254;47.990;-1.608;2023-04-01T20:04:07;19.90;55.00
49379;DHT22;35254;47.990;-1.608;2023-04-01T20:08:54;19.90;55.00
49379;DHT22;35254;47.990;-1.608;2023-04-01T20:11:58;19.90;55.00
49379;DHT22;35254;47.990;-1.608;2023-04-01T20:14:43;19.90;54.90
49379;DHT22;35254;47.990;-1.608;2023-04-01T20:24:59;19.90;54.70
49379;DHT22;35254;47.990;-1.608;2023-04-01T20:27:33;19.90;54.80
49379;DHT22;35254;47.990;-1.608;2023-04-01T20:35:36;19.90;54.80
49379;DHT22;35254;47.990;-1.608;2023-04-01T20:40:50;19.90;54.70
49379;DHT22;35254;47.990;-1.608;2023-04-01T20:46:00;19.90;54.80
49379;DHT22;35254;47.990;-1.608;2023-04-01T20:48:38;19.90;54.80
49379;DHT22;35254;47.990;-1.608;2023-04-01T20:51:19;19.90;54.60
49379;DHT22;35254;47.990;-1.608;2023-04-01T21:17:17;19.90;54.40
49379;DHT22;35254;47.990;-1.608;2023-04-01T21:20:15;19.90;54.40
49379;DHT22;35254;47.990;-1.608;2023-04-01T21:28:33;19.80;54.70
49379;DHT22;35254;47.990;-1.608;2023-04-01T21:31:21;19.90;54.70
49379;DHT22;35254;47.990;-1.608;2023-04-01T22:00:19;19.80;54.90
49379;DHT22;35254;47.990;-1.608;2023-04-01T22:05:44;19.80;55.00
49379;DHT22;35254;47.990;-1.608;2023-04-01T22:08:37;19.80;54.90
49379;DHT22;35254;47.990;-1.608;2023-04-01T22:11:23;19.80;54.90
49379;DHT22;35254;47.990;-1.608;2023-04-01T22:14:21;19.70;55.10
49379;DHT22;35254;47.990;-1.608;2023-04-01T22:16:57;19.80;55.00
49379;DHT22;35254;47.990;-1.608;2023-04-01T22:19:40;19.80;54.90
49379;DHT22;35254;47.990;-1.608;2023-04-01T22:22:19;19.80;55.00
49379;DHT22;35254;47.990;-1.608;2023-04-01T22:27:50;19.80;54.90
49379;DHT22;35254;47.990;-1.608;2023-04-01T22:30:31;19.80;54.90
49379;DHT22;35254;47.990;-1.608;2023-04-01T22:36:00;19.80;54.90
49379;DHT22;35254;47.990;-1.608;2023-04-01T22:43:43;19.80;55.10
49379;DHT22;35254;47.990;-1.608;2023-04-01T22:48:43;19.70;55.20
49379;DHT22;35254;47.990;-1.608;2023-04-01T22:51:22;19.70;55.30
49379;DHT22;35254;47.990;-1.608;2023-04-01T22:54:24;19.70;55.30
49379;DHT22;35254;47.990;-1.608;2023-04-01T22:57:34;19.70;55.70
49379;DHT22;35254;47.990;-1.608;2023-04-01T22:59:58;19.70;55.30
49379;DHT22;35254;47.990;-1.608;2023-04-01T23:02:47;19.70;55.40
49379;DHT22;35254;47.990;-1.608;2023-04-01T23:05:18;19.70;55.70
49379;DHT22;35254;47.990;-1.608;2023-04-01T23:10:58;19.70;55.70
49379;DHT22;35254;47.990;-1.608;2023-04-01T23:13:35;19.70;55.60
49379;DHT22;35254;47.990;-1.608;2023-04-01T23:16:04;19.70;55.40
49379;DHT22;35254;47.990;-1.608;2023-04-01T23:18:34;19.70;55.70
49379;DHT22;35254;47.990;-1.608;2023-04-01T23:21:41;19.70;55.60
49379;DHT22;35254;47.990;-1.608;2023-04-01T23:24:19;19.70;55.70
49379;DHT22;35254;47.990;-1.608;2023-04-01T23:27:21;19.70;55.80
49379;DHT22;35254;47.990;-1.608;2023-04-01T23:29:48;19.70;55.60
49379;DHT22;35254;47.990;-1.608;2023-04-01T23:32:18;19.70;55.90
49379;DHT22;35254;47.990;-1.608;2023-04-01T23:34:49;19.70;55.30
49379;DHT22;35254;47.990;-1.608;2023-04-01T23:37:16;19.70;55.00
49379;DHT22;35254;47.990;-1.608;2023-04-01T23:39:45;19.70;55.00
49379;DHT22;35254;47.990;-1.608;2023-04-01T23:42:22;19.70;55.10
49379;DHT22;35254;47.990;-1.608;2023-04-01T23:44:51;19.70;55.00
49379;DHT22;35254;47.990;-1.608;2023-04-01T23:47:23;19.70;55.30
49379;DHT22;35254;47.990;-1.608;2023-04-01T23:50:03;19.70;55.30
49379;DHT22;35254;47.990;-1.608;2023-04-01T23:52:36;19.70;55.50
49379;DHT22;35254;47.990;-1.608;2023-04-01T23:57:36;19.70;55.80
